Time;durP1;ratioP1;P1;durP2;ratioP2;P2;SDS_P1;SDS_P2;PMS_P1;PMS_P2;Temp;Humidity;BMP_temperature;BMP_pressure;BME280_temperature;BME280_humidity;BME280_pressure;Samples;Min_cycle;Max_cycle;Signal;HPM_P1;HPM_P2
2022/06/06 00:01:51;;;;;;;14.50;8.95;;;;;;;14.61;100.00;99276.91;5068592;28;20029;-55
2022/06/06 00:04:16;;;;;;;19.45;8.70;;;;;;;14.60;100.00;99281.50;5050907;28;20483;-54
2022/06/06 00:06:42;;;;;;;17.35;10.30;;;;;;;14.53;100.00;99285.50;5069911;28;20062;-53
2022/06/06 00:09:08;;;;;;;17.52;9.88;;;;;;;14.50;100.00;99277.94;5066577;28;20239;-54
2022/06/06 00:11:34;;;;;;;22.17;10.27;;;;;;;14.43;100.00;99278.22;5065766;28;20060;-53
2022/06/06 00:13:59;;;;;;;16.95;9.80;;;;;;;14.43;100.00;99281.72;5044132;28;20490;-53
2022/06/06 00:16:25;;;;;;;16.80;10.52;;;;;;;14.34;100.00;99280.59;5063886;28;20506;-54
2022/06/06 00:18:50;;;;;;;26.55;10.82;;;;;;;14.34;100.00;99274.41;5066173;28;20033;-54
2022/06/06 00:21:16;;;;;;;18.48;11.00;;;;;;;14.31;100.00;99281.13;5068782;28;20024;-54
2022/06/06 00:23:41;;;;;;;33.05;9.77;;;;;;;14.34;100.00;99275.22;5036192;28;20036;-54
2022/06/06 00:26:12;;;;;;;24.33;11.00;;;;;;;14.27;100.00;99271.94;5065379;28;20457;-55
2022/06/06 00:28:38;;;;;;;19.13;10.77;;;;;;;14.29;100.00;99269.81;5050725;28;20198;-54
2022/06/06 00:36:32;;;;;;;21.67;11.20;;;;;;;14.28;100.00;99265.50;5064946;28;20116;-55
2022/06/06 00:38:58;;;;;;;27.27;11.32;;;;;;;14.19;100.00;99277.88;5062913;28;20384;-55
2022/06/06 00:41:23;;;;;;;24.65;12.73;;;;;;;14.09;100.00;99267.84;5047684;28;20532;-55
2022/06/06 00:44:21;;;;;;;31.27;13.07;;;;;;;14.02;100.00;99268.09;5070070;28;20051;-55
2022/06/06 00:46:55;;;;;;;28.90;12.35;;;;;;;13.97;100.00;99270.78;5031093;28;20045;-54
2022/06/06 00:49:36;;;;;;;28.67;14.15;;;;;;;13.89;100.00;99257.81;5051095;28;20039;-54
2022/06/06 00:52:04;;;;;;;26.70;13.68;;;;;;;13.85;100.00;99256.72;5046487;28;20068;-54
2022/06/06 00:54:29;;;;;;;27.40;13.10;;;;;;;13.86;100.00;99261.03;5039538;28;20095;-55
2022/06/06 00:56:58;;;;;;;25.73;13.20;;;;;;;13.80;100.00;99268.28;5022830;28;20463;-54
2022/06/06 00:59:25;;;;;;;29.08;13.25;;;;;;;13.77;100.00;99276.06;5069235;28;20060;-55
2022/06/06 01:01:51;;;;;;;27.38;12.85;;;;;;;13.78;100.00;99272.31;5067479;28;20455;-52
2022/06/06 01:04:17;;;;;;;25.02;13.75;;;;;;;13.79;100.00;99263.16;5035534;28;20054;-54
2022/06/06 01:06:45;;;;;;;28.45;13.75;;;;;;;13.71;100.00;99263.66;5021318;28;20036;-53
2022/06/06 01:09:14;;;;;;;30.08;14.40;;;;;;;13.66;100.00;99264.44;5067684;28;20106;-54
2022/06/06 01:11:41;;;;;;;28.10;15.25;;;;;;;13.69;100.00;99263.91;5068295;28;20039;-54
2022/06/06 01:14:07;;;;;;;26.85;13.95;;;;;;;13.68;100.00;99265.00;5051320;28;20020;-56
2022/06/06 01:16:48;;;;;;;25.05;14.18;;;;;;;13.62;100.00;99263.34;5068087;28;20044;-54
2022/06/06 01:19:44;;;;;;;30.17;13.63;;;;;;;13.63;100.00;99266.84;5064631;28;20103;-54
2022/06/06 01:22:42;;;;;;;25.98;14.63;;;;;;;13.59;100.00;99274.63;5065572;28;20111;-54
2022/06/06 01:25:35;;;;;;;30.77;13.57;;;;;;;13.52;100.00;99274.06;5048502;28;20028;-54
2022/06/06 01:28:03;;;;;;;32.58;16.20;;;;;;;13.47;100.00;99288.28;5061978;28;20044;-53
2022/06/06 01:30:33;;;;;;;35.78;15.55;;;;;;;13.45;100.00;99281.56;5068641;28;20067;-54
2022/06/06 01:33:01;;;;;;;37.50;16.63;;;;;;;13.48;100.00;99283.72;5067670;28;20025;-54
2022/06/06 01:35:47;;;;;;;44.58;18.70;;;;;;;13.46;100.00;99281.31;5047499;28;20048;-54
2022/06/06 01:38:14;;;;;;;32.78;16.10;;;;;;;13.44;100.00;99288.81;5066153;28;20043;-54
2022/06/06 01:41:05;;;;;;;34.38;16.08;;;;;;;13.44;100.00;99278.06;5038529;28;20047;-54
2022/06/06 01:43:34;;;;;;;29.95;16.52;;;;;;;13.42;100.00;99279.38;5040566;28;20395;-54
2022/06/06 01:46:09;;;;;;;33.13;16.08;;;;;;;13.37;100.00;99269.38;5023272;28;20474;-54
2022/06/06 01:48:39;;;;;;;32.10;16.25;;;;;;;13.34;100.00;99281.47;5029884;28;20032;-54
2022/06/06 01:51:12;;;;;;;;;;;;;;;13.33;100.00;99276.38;5066039;28;20029;-55
2022/06/06 01:53:38;;;;;;;33.92;16.23;;;;;;;13.27;100.00;99272.81;5066372;28;20273;-55
2022/06/06 01:56:04;;;;;;;38.53;16.17;;;;;;;13.30;100.00;99271.50;5068600;28;20107;-54
2022/06/06 01:58:30;;;;;;;36.05;15.77;;;;;;;13.30;100.00;99263.41;5066467;28;20024;-53
2022/06/06 02:00:55;;;;;;;39.42;16.23;;;;;;;13.29;100.00;99259.91;5050042;28;20055;-54
2022/06/06 02:03:21;;;;;;;31.23;15.45;;;;;;;13.30;100.00;99252.66;5035534;28;20476;-53
2022/06/06 02:05:46;;;;;;;37.78;17.00;;;;;;;13.24;100.00;99259.06;5066295;28;20031;-54
2022/06/06 02:08:14;;;;;;;39.42;16.10;;;;;;;13.18;100.00;99247.44;5067460;28;20036;-54
2022/06/06 02:10:40;;;;;;;28.33;14.63;;;;;;;13.21;100.00;99241.53;5066906;28;20032;-54
2022/06/06 02:13:05;;;;;;;40.22;16.77;;;;;;;13.20;100.00;99234.53;5067726;28;20028;-54
2022/06/06 02:15:31;;;;;;;33.92;16.95;;;;;;;13.10;100.00;99227.22;5066495;28;20028;-54
2022/06/06 02:17:57;;;;;;;31.77;16.30;;;;;;;13.10;100.00;99224.53;5067379;28;20021;-55
2022/06/06 02:20:24;;;;;;;29.10;14.38;;;;;;;13.16;100.00;99231.56;5067383;28;20403;-57
2022/06/06 02:22:49;;;;;;;31.10;15.27;;;;;;;13.20;100.00;99233.72;5065922;28;20542;-54
2022/06/06 02:25:15;;;;;;;32.53;16.50;;;;;;;13.21;100.00;99241.53;5067564;28;20086;-54
2022/06/06 02:27:40;;;;;;;36.10;15.68;;;;;;;13.17;100.00;99241.22;5069727;28;20032;-53
2022/06/06 02:30:08;;;;;;;31.90;16.23;;;;;;;13.20;100.00;99241.78;5067351;28;20111;-54
2022/06/06 02:32:33;;;;;;;31.17;15.88;;;;;;;13.16;100.00;99233.44;5066901;28;20540;-54
2022/06/06 02:34:59;;;;;;;33.17;16.80;;;;;;;13.12;100.00;99233.13;5063995;28;20025;-54
2022/06/06 02:37:24;;;;;;;33.88;16.70;;;;;;;13.14;100.00;99241.75;5067522;28;20062;-54
2022/06/06 02:39:50;;;;;;;32.00;15.45;;;;;;;13.06;100.00;99238.75;5064254;28;20343;-54
2022/06/06 02:42:15;;;;;;;31.95;16.70;;;;;;;13.11;100.00;99236.91;5067705;28;20028;-54
2022/06/06 02:44:40;;;;;;;31.73;15.63;;;;;;;13.08;100.00;99237.44;5065828;28;20482;-54
2022/06/06 02:47:06;;;;;;;31.73;15.93;;;;;;;13.07;100.00;99232.28;5063191;28;20093;-55
2022/06/06 02:49:33;;;;;;;32.75;15.70;;;;;;;13.14;100.00;99227.50;5065782;28;20173;-54
2022/06/06 02:52:00;;;;;;;31.73;15.90;;;;;;;13.21;100.00;99230.78;5065906;28;20028;-53
2022/06/06 02:54:26;;;;;;;29.73;16.50;;;;;;;13.10;100.00;99235.28;5062934;28;20016;-55
2022/06/06 02:56:52;;;;;;;32.80;16.92;;;;;;;13.01;100.00;99242.22;5066066;28;20035;-54
2022/06/06 02:59:17;;;;;;;36.03;17.50;;;;;;;12.97;100.00;99243.78;5046022;28;20068;-54
2022/06/06 03:01:43;;;;;;;30.42;16.58;;;;;;;13.03;100.00;99242.78;5027275;28;20036;-54
2022/06/06 03:04:09;;;;;;;35.75;17.08;;;;;;;13.08;100.00;99241.97;5066980;28;20033;-54
2022/06/06 03:06:34;;;;;;;43.25;17.65;;;;;;;13.12;100.00;99248.47;5054023;28;21570;-52
2022/06/06 03:09:21;;;;;;;26.85;15.80;;;;;;;13.14;100.00;99246.34;5068030;28;20045;-54
2022/06/06 03:11:52;;;;;;;39.08;17.27;;;;;;;13.03;100.00;99248.16;5069996;28;20028;-51
2022/06/06 03:14:40;;;;;;;30.77;16.23;;;;;;;13.04;100.00;99251.66;5064840;28;20032;-53
2022/06/06 03:23:29;;;;;;;35.67;16.83;;;;;;;13.08;100.00;99241.97;5069876;28;20069;-53
2022/06/06 03:26:15;;;;;;;35.45;17.02;;;;;;;13.12;100.00;99249.28;5070526;28;20082;-54
2022/06/06 03:28:52;;;;;;;36.55;16.77;;;;;;;13.10;100.00;99251.44;5051665;28;20544;-54
2022/06/06 03:31:52;;;;;;;40.13;18.05;;;;;;;13.07;100.00;99245.75;5073477;28;20424;-53
2022/06/06 03:34:26;;;;;;;35.35;16.02;;;;;;;13.20;100.00;99252.56;5068369;28;20044;-54
2022/06/06 03:37:12;;;;;;;34.60;16.80;;;;;;;13.40;100.00;99255.41;5068804;28;20393;-54
2022/06/06 03:39:44;;;;;;;34.25;16.15;;;;;;;13.50;100.00;99260.03;5052717;28;20063;-55
2022/06/06 03:42:24;;;;;;;32.78;16.60;;;;;;;13.61;100.00;99260.94;5038250;28;20036;-55
2022/06/06 03:45:00;;;;;;;32.25;15.20;;;;;;;13.71;100.00;99252.91;5069100;28;20044;-53
2022/06/06 03:47:43;;;;;;;28.98;15.75;;;;;;;14.38;100.00;99253.94;5069617;28;20262;-54
2022/06/06 03:50:24;;;;;;;29.05;14.30;;;;;;;14.20;98.76;99263.31;5065119;28;20029;-53
2022/06/06 03:52:54;;;;;;;;;;;;;;;13.72;100.00;99273.34;5069994;28;20025;-54
2022/06/06 03:55:22;;;;;;;;;;;;;;;13.33;100.00;99268.31;5070044;28;20430;-54
2022/06/06 03:57:48;;;;;;;31.58;14.80;;;;;;;13.22;100.00;99267.38;5070381;28;20010;-54
2022/06/06 04:00:14;;;;;;;35.95;16.35;;;;;;;13.25;100.00;99269.53;5060720;28;20530;-53
2022/06/06 04:02:41;;;;;;;27.42;16.33;;;;;;;13.30;100.00;99266.91;5069309;28;20016;-54
2022/06/06 04:05:18;;;;;;;31.90;16.67;;;;;;;13.29;100.00;99259.13;5069617;28;20021;-53
2022/06/06 04:07:43;;;;;;;31.95;17.60;;;;;;;13.42;100.00;99269.41;5069004;28;20052;-54
2022/06/06 04:10:09;;;;;;;37.40;17.08;;;;;;;13.38;100.00;99260.25;5069016;28;20035;-53
2022/06/06 04:12:41;;;;;;;41.08;17.88;;;;;;;13.61;100.00;99269.00;5069251;28;20036;-53
2022/06/06 04:15:20;;;;;;;32.78;16.92;;;;;;;13.80;100.00;99272.84;5069232;28;20035;-54
2022/06/06 04:18:07;;;;;;;32.35;17.23;;;;;;;13.90;100.00;99272.88;5065075;28;20113;-53
2022/06/06 04:20:50;;;;;;;32.80;16.58;;;;;;;14.07;100.00;99270.00;5065606;28;20036;-53
2022/06/06 04:23:24;;;;;;;34.92;15.45;;;;;;;14.05;100.00;99276.72;5041386;28;20077;-54
2022/06/06 04:26:01;;;;;;;36.42;17.05;;;;;;;14.29;100.00;99285.19;5065728;28;20088;-54
2022/06/06 04:28:31;;;;;;;33.42;15.05;;;;;;;14.21;100.00;99279.22;5065636;28;20036;-54
2022/06/06 04:31:14;;;;;;;25.98;14.38;;;;;;;14.73;98.80;99272.09;5039239;28;20028;-54
2022/06/06 04:34:04;;;;;;;34.72;15.98;;;;;;;14.52;99.78;99273.09;5044878;28;20033;-54
2022/06/06 04:37:08;;;;;;;29.90;14.57;;;;;;;14.67;99.58;99283.94;5035368;28;20219;-54
2022/06/06 04:39:44;;;;;;;26.88;14.40;;;;;;;14.58;99.87;99280.16;4968193;28;20370;-53
2022/06/06 04:42:20;;;;;;;33.20;14.77;;;;;;;15.56;95.99;99280.94;4962606;28;20038;-55
2022/06/06 04:44:58;;;;;;;19.33;11.50;;;;;;;17.36;83.16;99287.75;5011305;28;20052;-55
2022/06/06 04:47:46;;;;;;;20.60;12.63;;;;;;;16.07;89.52;99299.69;5035951;28;20161;-54
2022/06/06 04:50:14;;;;;;;21.55;12.07;;;;;;;15.95;90.21;99302.75;5050616;28;20608;-55
2022/06/06 04:52:41;;;;;;;21.33;11.52;;;;;;;15.32;93.90;99297.69;5068409;28;20386;-54
2022/06/06 04:55:08;;;;;;;20.58;12.10;;;;;;;15.26;95.21;99312.31;5068226;28;20039;-54
2022/06/06 04:57:34;;;;;;;22.02;12.23;;;;;;;15.31;95.15;99307.69;5066865;28;20367;-54
2022/06/06 04:59:59;;;;;;;27.17;12.90;;;;;;;16.03;91.13;99304.84;5069057;28;20035;-54
2022/06/06 05:02:25;;;;;;;22.33;12.20;;;;;;;18.05;80.39;99301.94;5068460;28;20032;-55
2022/06/06 05:04:51;;;;;;;17.95;10.88;;;;;;;17.98;79.31;99311.53;5035285;28;20151;-55
2022/06/06 05:07:55;;;;;;;19.30;11.18;;;;;;;17.96;79.20;99305.59;5067380;28;20111;-54
2022/06/06 05:10:26;;;;;;;18.75;10.85;;;;;;;20.39;70.97;99311.13;5062432;28;20044;-55
2022/06/06 05:13:00;;;;;;;18.30;10.43;;;;;;;20.24;70.52;99317.69;5066555;28;20035;-55
2022/06/06 05:15:44;;;;;;;15.85;9.93;;;;;;;19.55;71.93;99317.66;5068419;28;20044;-55
2022/06/06 05:18:25;;;;;;;15.82;9.40;;;;;;;17.97;78.02;99312.63;5049621;28;20298;-55
2022/06/06 05:21:05;;;;;;;16.75;9.20;;;;;;;17.78;78.24;99313.34;5038186;28;20033;-54
2022/06/06 05:23:49;;;;;;;16.92;9.65;;;;;;;16.61;84.67;99318.63;5046810;28;20029;-55
2022/06/06 05:26:32;;;;;;;14.98;9.15;;;;;;;17.78;81.08;99318.78;5067644;28;20070;-55
2022/06/06 05:29:30;;;;;;;14.73;10.23;;;;;;;19.07;76.28;99321.47;5062594;28;20193;-55
2022/06/06 05:32:17;;;;;;;17.15;9.95;;;;;;;16.65;84.33;99321.59;5051114;28;20049;-55
2022/06/06 05:34:49;;;;;;;14.98;9.75;;;;;;;17.17;82.53;99320.19;5065949;28;20483;-54
2022/06/06 05:37:36;;;;;;;17.67;8.95;;;;;;;17.86;79.87;99315.44;5025795;28;20028;-55
2022/06/06 05:40:12;;;;;;;15.27;9.70;;;;;;;16.97;83.80;99321.16;5047873;28;20016;-53
2022/06/06 05:42:51;;;;;;;18.38;10.20;;;;;;;18.94;77.00;99333.06;5043118;28;20053;-56
2022/06/06 05:45:40;;;;;;;14.83;8.67;;;;;;;20.35;69.97;99335.44;5058347;28;20699;-54
2022/06/06 05:48:40;;;;;;;16.63;9.47;;;;;;;18.90;75.06;99330.13;5032291;28;20051;-55
2022/06/06 05:51:34;;;;;;;13.15;8.63;;;;;;;17.72;78.99;99327.22;5066678;28;20082;-54
2022/06/06 05:54:24;;;;;;;22.13;8.82;;;;;;;18.64;75.16;99335.09;5047464;28;20123;-55
2022/06/06 05:57:05;;;;;;;15.77;8.82;;;;;;;19.77;72.16;99328.69;5043254;28;20035;-54
2022/06/06 05:59:54;;;;;;;16.40;8.70;;;;;;;22.66;62.45;99337.75;5066162;28;20040;-55
2022/06/06 06:02:43;;;;;;;19.15;8.65;;;;;;;22.07;64.06;99333.44;5066495;28;20028;-55
2022/06/06 06:05:14;;;;;;;16.30;8.18;;;;;;;22.69;61.21;99337.13;5047632;28;20056;-54
2022/06/06 06:08:04;;;;;;;12.65;8.38;;;;;;;19.51;70.90;99350.06;5063972;28;20071;-55
2022/06/06 06:10:32;;;;;;;15.73;8.55;;;;;;;18.64;74.90;99345.94;5065077;28;20097;-54
2022/06/06 06:13:21;;;;;;;14.60;8.30;;;;;;;17.90;77.89;99345.53;5060901;28;20024;-55
2022/06/06 06:15:47;;;;;;;13.93;7.50;;;;;;;18.60;76.95;99344.94;5066086;28;20064;-54
2022/06/06 06:18:26;;;;;;;13.98;8.57;;;;;;;19.40;73.61;99345.91;5048803;28;20306;-54
2022/06/06 06:21:06;;;;;;;18.23;8.10;;;;;;;18.63;75.44;99340.81;5047692;28;20032;-54
2022/06/06 06:23:32;;;;;;;;;;;;;;;18.61;74.99;99349.25;5020824;28;20771;-51
2022/06/06 06:26:00;;;;;;;9.40;6.05;;;;;;;19.51;70.84;99355.50;5049688;28;20011;-55
2022/06/06 06:28:27;;;;;;;9.52;5.70;;;;;;;19.59;69.22;99357.53;5024338;28;20029;-55
2022/06/06 06:31:09;;;;;;;10.55;6.00;;;;;;;18.73;71.91;99346.91;5050100;28;20044;-54
2022/06/06 06:34:12;;;;;;;12.73;5.78;;;;;;;18.29;73.92;99348.03;5026718;28;20017;-54
2022/06/06 06:36:44;;;;;;;13.32;5.53;;;;;;;17.69;74.65;99356.53;5064545;28;20036;-54
2022/06/06 06:39:43;;;;;;;15.88;6.72;;;;;;;18.03;75.57;99354.88;5047246;28;20100;-54
2022/06/06 06:42:08;;;;;;;8.70;5.70;;;;;;;19.29;72.02;99355.31;5069060;28;20115;-55
2022/06/06 06:44:34;;;;;;;11.60;6.50;;;;;;;19.47;70.08;99365.38;5051706;28;20162;-54
2022/06/06 06:47:09;;;;;;;9.60;5.55;;;;;;;19.29;68.33;99368.91;5036521;28;20037;-54
2022/06/06 06:49:42;;;;;;;9.52;5.25;;;;;;;20.77;64.80;99371.59;5052334;28;20034;-56
2022/06/06 06:52:25;;;;;;;10.52;5.32;;;;;;;22.39;60.35;99375.16;5058709;28;20035;-54
2022/06/06 06:55:02;;;;;;;9.80;4.95;;;;;;;24.68;52.79;99378.78;5059846;28;20444;-55
2022/06/06 06:57:46;;;;;;;7.75;4.20;;;;;;;25.64;49.98;99378.00;5068170;28;20031;-56
2022/06/06 07:00:22;;;;;;;9.82;4.72;;;;;;;24.68;52.27;99374.13;5068991;28;20043;-56
2022/06/06 07:09:28;;;;;;;6.28;4.60;;;;;;;24.77;50.84;99390.50;5070436;28;20074;-55
2022/06/06 07:12:02;;;;;;;9.38;4.20;;;;;;;24.79;49.91;99387.41;5067033;28;20037;-55
2022/06/06 07:14:46;;;;;;;7.60;3.80;;;;;;;24.86;48.07;99382.22;5070835;28;20051;-55
2022/06/06 07:17:12;;;;;;;6.82;3.70;;;;;;;26.14;46.59;99380.50;5070619;28;20024;-56
2022/06/06 07:19:58;;;;;;;7.80;4.53;;;;;;;25.33;47.92;99385.56;5058907;28;20505;-55
2022/06/06 07:22:23;;;;;;;7.20;4.45;;;;;;;25.43;48.58;99389.03;5047167;28;20487;-55
2022/06/06 07:24:56;;;;;;;9.75;4.05;;;;;;;24.66;49.91;99384.63;5070477;28;20094;-55
2022/06/06 07:27:21;;;;;;;7.70;4.15;;;;;;;24.25;49.22;99391.59;5052938;28;20047;-55
2022/06/06 07:29:46;;;;;;;8.13;4.28;;;;;;;21.74;56.86;99384.81;5070819;28;20033;-54
2022/06/06 07:32:31;;;;;;;7.47;3.90;;;;;;;21.10;57.08;99376.84;5069875;28;20549;-55
2022/06/06 07:35:07;;;;;;;4.90;3.72;;;;;;;23.29;53.88;99382.81;5048084;28;20048;-56
2022/06/06 07:37:56;;;;;;;6.10;3.92;;;;;;;25.81;48.80;99367.63;5053665;28;20428;-54
2022/06/06 07:40:46;;;;;;;6.13;3.65;;;;;;;25.51;49.54;99363.44;5067055;28;20027;-55
2022/06/06 07:43:14;;;;;;;8.55;3.70;;;;;;;24.80;49.43;99376.13;5065560;28;20040;-55
2022/06/06 07:45:48;;;;;;;7.05;3.55;;;;;;;26.90;46.30;99369.91;5069310;28;20028;-56
2022/06/06 07:48:19;;;;;;;4.88;3.33;;;;;;;25.48;45.93;99375.88;5060666;28;20043;-55
2022/06/06 07:50:55;;;;;;;6.28;3.33;;;;;;;22.07;54.81;99373.59;5069514;28;20034;-55
2022/06/06 07:53:30;;;;;;;7.47;3.65;;;;;;;23.50;53.64;99380.22;5031281;28;20046;-54
2022/06/06 07:56:04;;;;;;;6.80;3.40;;;;;;;23.28;50.28;99370.25;5067108;28;20146;-54
2022/06/06 07:58:50;;;;;;;5.18;3.20;;;;;;;20.98;57.67;99369.19;5049884;28;20043;-54
2022/06/06 08:01:19;;;;;;;6.43;3.15;;;;;;;23.93;54.14;99368.38;5045817;28;20218;-54
2022/06/06 08:03:52;;;;;;;;;;;;;;;25.92;47.90;99372.72;5069531;28;20093;-54
2022/06/06 08:06:44;;;;;;;5.10;2.72;;;;;;;25.11;48.25;99367.50;5048709;28;19969;-53
2022/06/06 08:09:42;;;;;;;5.20;2.75;;;;;;;26.23;44.92;99363.91;5068155;28;20122;-54
2022/06/06 08:12:29;;;;;;;4.75;2.55;;;;;;;26.16;45.01;99366.41;5047100;28;20415;-55
2022/06/06 08:15:04;;;;;;;3.88;2.20;;;;;;;26.37;43.18;99371.81;5066480;28;20036;-55
2022/06/06 08:17:35;;;;;;;6.45;2.28;;;;;;;26.15;43.60;99371.13;5044943;28;20032;-55
2022/06/06 08:20:27;;;;;;;3.35;2.10;;;;;;;24.33;46.68;99370.75;5062168;28;20029;-55
2022/06/06 08:22:53;;;;;;;4.00;2.03;;;;;;;25.16;44.88;99361.84;5064820;28;20784;-54
2022/06/06 08:25:20;;;;;;;4.68;2.05;;;;;;;26.94;40.98;99356.28;5047004;28;20048;-54
2022/06/06 08:27:47;;;;;;;3.55;1.92;;;;;;;27.76;40.17;99353.03;5069442;28;20047;-55
2022/06/06 08:30:13;;;;;;;3.25;1.77;;;;;;;28.11;39.58;99353.13;5068922;28;20017;-54
2022/06/06 08:32:39;;;;;;;4.95;2.10;;;;;;;27.27;38.59;99353.28;5068160;28;20119;-54
2022/06/06 08:35:04;;;;;;;3.25;1.85;;;;;;;26.62;39.33;99351.41;5067228;28;20021;-55
2022/06/06 08:38:05;;;;;;;3.30;1.75;;;;;;;26.40;41.09;99349.94;5066953;28;20499;-56
2022/06/06 08:40:52;;;;;;;5.40;2.10;;;;;;;23.59;45.43;99352.84;5034787;28;20480;-54
2022/06/06 08:43:59;;;;;;;4.00;2.00;;;;;;;24.05;47.41;99363.00;5064807;28;20243;-55
2022/06/06 08:46:41;;;;;;;3.25;1.98;;;;;;;23.81;47.69;99357.31;5057986;28;20047;-54
2022/06/06 08:50:44;;;;;;;4.68;1.90;;;;;;;24.30;45.40;99349.50;5065179;28;20056;-54
2022/06/06 08:52:15;;;;;;;4.72;2.05;;;;;;;23.90;45.63;99355.34;5066626;28;20040;-54
2022/06/06 08:54:57;;;;;;;4.50;2.20;;;;;;;24.11;45.49;99352.66;5040066;28;20028;-54
2022/06/06 08:57:35;;;;;;;3.55;2.20;;;;;;;24.23;45.48;99349.22;5033756;28;20032;-54
2022/06/06 09:00:25;;;;;;;6.88;2.20;;;;;;;23.60;47.21;99348.97;5070260;28;20024;-55
2022/06/06 09:03:22;;;;;;;3.33;1.90;;;;;;;22.64;48.72;99340.00;5025989;28;20036;-54
2022/06/06 09:06:41;;;;;;;2.92;1.83;;;;;;;23.01;48.78;99339.44;5046798;28;20052;-58
2022/06/06 09:09:33;;;;;;;3.03;2.00;;;;;;;22.41;48.24;99348.31;4967437;28;20433;-55
2022/06/06 09:12:27;;;;;;;5.70;1.92;;;;;;;23.51;46.40;99351.72;5049769;28;20055;-55
2022/06/06 09:15:24;;;;;;;5.68;2.13;;;;;;;24.06;45.87;99350.94;5067816;28;20028;-54
2022/06/06 09:18:18;;;;;;;3.92;1.80;;;;;;;23.62;46.72;99352.19;5040218;28;20040;-53
2022/06/06 09:20:50;;;;;;;3.85;2.15;;;;;;;21.97;48.42;99352.84;5065395;28;20032;-54
2022/06/06 09:23:32;;;;;;;4.03;1.83;;;;;;;22.05;48.58;99343.88;5064532;28;20029;-54
2022/06/06 09:26:05;;;;;;;4.65;1.80;;;;;;;22.53;48.21;99345.00;5065333;28;20032;-54
2022/06/06 09:29:21;;;;;;;2.90;1.90;;;;;;;22.65;48.67;99344.38;5047438;28;20332;-54
2022/06/06 09:32:08;;;;;;;4.97;2.10;;;;;;;22.77;48.73;99339.06;5032968;28;20477;-53
2022/06/06 09:34:49;;;;;;;3.17;1.90;;;;;;;22.65;47.94;99341.63;5065319;28;20391;-54
2022/06/06 09:37:40;;;;;;;3.67;2.20;;;;;;;22.20;49.46;99326.28;5064422;28;20119;-55
2022/06/06 09:40:15;;;;;;;2.90;1.80;;;;;;;22.34;47.57;99331.59;5030314;28;20087;-54
2022/06/06 09:42:50;;;;;;;3.40;1.80;;;;;;;22.22;49.90;99323.25;5066641;28;20500;-54
2022/06/06 09:46:04;;;;;;;2.80;1.80;;;;;;;22.28;48.14;99324.69;5041501;28;20020;-57
2022/06/06 09:48:54;;;;;;;4.40;2.00;;;;;;;21.79;49.97;99332.88;4983737;28;20034;-58
2022/06/06 09:51:51;;;;;;;6.50;2.10;;;;;;;21.30;51.59;99316.38;5060141;28;20596;-54
2022/06/06 10:01:04;;;;;;;11.53;2.80;;;;;;;24.25;42.79;99308.63;5062266;28;20074;-54
2022/06/06 10:04:02;;;;;;;6.63;2.97;;;;;;;23.45;46.87;99312.81;5064744;28;20281;-55
2022/06/06 10:06:48;;;;;;;5.38;2.05;;;;;;;23.90;45.54;99320.56;5006092;28;20041;-55
2022/06/06 10:09:32;;;;;;;3.72;1.75;;;;;;;24.65;44.54;99319.19;5063428;28;20044;-54
2022/06/06 10:12:20;;;;;;;4.65;1.70;;;;;;;22.86;46.69;99314.47;5067165;28;20040;-53
2022/06/06 10:14:49;;;;;;;2.95;1.90;;;;;;;23.48;46.56;99319.56;5045915;28;20059;-55
2022/06/06 10:17:52;;;;;;;7.50;1.63;;;;;;;21.66;49.39;99307.28;5061673;28;20432;-54
2022/06/06 10:20:24;;;;;;;2.97;1.65;;;;;;;22.96;48.31;99316.88;5053446;28;20021;-53
2022/06/06 10:23:12;;;;;;;4.40;1.90;;;;;;;21.68;47.29;99296.88;5045373;28;20024;-54
2022/06/06 10:25:53;;;;;;;3.95;1.95;;;;;;;21.85;47.04;99298.06;5064588;28;20106;-58
2022/06/06 10:28:33;;;;;;;3.72;1.77;;;;;;;21.18;48.12;99296.25;5067392;28;20098;-54
2022/06/06 10:31:47;;;;;;;5.20;1.80;;;;;;;22.36;45.83;99297.41;5047497;28;20028;-56
2022/06/06 10:34:31;;;;;;;2.20;1.63;;;;;;;21.79;47.33;99307.50;5003653;28;20033;-53
2022/06/06 10:37:08;;;;;;;4.75;2.03;;;;;;;22.12;49.18;99303.28;5066275;28;20128;-55
2022/06/06 10:39:55;;;;;;;4.18;2.38;;;;;;;22.00;50.10;99305.81;5061861;28;20429;-54
2022/06/06 10:42:45;;;;;;;3.13;2.10;;;;;;;22.77;50.12;99311.75;5065174;28;20036;-54
2022/06/06 10:45:20;;;;;;;;;;;;;;;22.57;47.49;99303.06;5047365;28;20442;-54
2022/06/06 10:48:06;;;;;;;5.95;1.90;;;;;;;23.45;48.71;99307.34;5067389;28;19987;-54
2022/06/06 10:53:59;;;;;;;15.35;2.53;;;;;;;21.38;51.38;99305.84;5064845;28;20032;-53
2022/06/06 10:56:36;;;;;;;9.45;2.35;;;;;;;21.71;50.65;99296.22;5067541;28;20044;-54
2022/06/06 10:59:20;;;;;;;5.72;2.15;;;;;;;22.01;50.67;99291.03;5067130;28;20294;-54
2022/06/06 11:02:22;;;;;;;4.80;2.10;;;;;;;22.08;49.57;99296.03;5066998;28;20451;-54
2022/06/06 11:05:11;;;;;;;6.78;2.30;;;;;;;22.34;51.10;99309.75;5067143;28;20059;-54
2022/06/06 11:07:51;;;;;;;3.83;2.17;;;;;;;22.63;50.82;99311.09;5065366;28;20516;-53
2022/06/06 11:10:39;;;;;;;3.85;2.20;;;;;;;21.94;51.93;99312.53;5065752;28;20040;-54
2022/06/06 11:13:13;;;;;;;4.80;2.30;;;;;;;21.49;51.06;99307.19;5060579;28;20045;-56
2022/06/06 11:15:41;;;;;;;5.18;2.10;;;;;;;21.54;49.92;99307.06;5066627;28;20037;-53
2022/06/06 11:18:45;;;;;;;6.32;2.30;;;;;;;22.59;49.97;99300.81;5042473;28;20043;-56
2022/06/06 11:21:36;;;;;;;4.07;2.00;;;;;;;22.48;49.10;99302.25;5031788;28;20033;-55
2022/06/06 11:24:20;;;;;;;8.35;2.33;;;;;;;21.57;51.62;99308.34;5048879;28;20028;-55
2022/06/06 11:26:51;;;;;;;3.97;2.13;;;;;;;21.49;50.88;99296.28;5068497;28;20020;-56
2022/06/06 11:29:46;;;;;;;5.28;2.35;;;;;;;21.42;51.96;99295.94;5052965;28;20029;-56
2022/06/06 11:32:30;;;;;;;4.07;2.08;;;;;;;21.08;54.25;99300.84;5035880;28;20040;-56
2022/06/06 11:35:14;;;;;;;3.85;2.25;;;;;;;20.41;55.04;99312.41;5067766;28;20549;-58
2022/06/06 11:37:54;;;;;;;6.43;2.30;;;;;;;20.22;57.07;99317.22;5066701;28;20078;-57
2022/06/06 11:40:43;;;;;;;5.38;2.30;;;;;;;20.03;56.79;99320.03;5067646;28;20063;-55
2022/06/06 11:43:27;;;;;;;5.75;2.25;;;;;;;20.19;58.36;99315.91;5049939;28;20095;-55
2022/06/06 11:46:31;;;;;;;7.38;2.30;;;;;;;20.42;58.75;99318.69;5060413;28;20036;-54
2022/06/06 11:49:22;;;;;;;3.70;2.15;;;;;;;20.16;59.97;99312.97;5058740;28;20049;-55
2022/06/06 11:51:53;;;;;;;3.45;2.08;;;;;;;20.33;58.88;99313.16;5032062;28;20064;-53
2022/06/06 11:54:37;;;;;;;2.95;1.90;;;;;;;20.40;57.43;99310.03;5042979;28;20041;-54
2022/06/06 11:57:39;;;;;;;3.70;2.30;;;;;;;19.90;57.27;99313.50;5066663;28;20177;-55
2022/06/06 12:00:28;;;;;;;2.75;1.90;;;;;;;19.47;58.76;99318.31;5068737;28;20037;-54
2022/06/06 12:03:03;;;;;;;4.28;2.25;;;;;;;19.75;58.88;99311.88;5061228;28;20325;-55
2022/06/06 12:05:50;;;;;;;4.68;2.13;;;;;;;19.22;59.93;99311.44;5068219;28;20039;-56
2022/06/06 12:08:35;;;;;;;3.92;2.50;;;;;;;19.12;61.37;99321.38;5067847;28;20096;-55
2022/06/06 12:11:38;;;;;;;4.47;2.10;;;;;;;19.59;61.36;99319.47;5064416;28;20025;-55
2022/06/06 12:14:22;;;;;;;3.90;2.50;;;;;;;19.13;61.48;99303.97;5065387;28;20487;-54
2022/06/06 12:16:58;;;;;;;6.35;3.00;;;;;;;19.07;61.32;99313.31;5066842;28;20039;-54
2022/06/06 12:19:32;;;;;;;5.82;2.40;;;;;;;18.64;62.63;99312.56;5040111;28;20024;-53
2022/06/06 12:22:24;;;;;;;7.05;2.20;;;;;;;18.79;62.58;99295.28;5067709;28;20078;-56
2022/06/06 12:24:50;;;;;;;5.03;2.40;;;;;;;19.00;62.86;99304.72;5065547;28;20089;-55
2022/06/06 12:27:27;;;;;;;3.95;2.03;;;;;;;18.86;62.90;99310.09;5067983;28;20060;-55
2022/06/06 12:30:04;;;;;;;7.82;2.65;;;;;;;18.29;63.03;99303.81;5064856;28;20116;-54
2022/06/06 12:32:58;;;;;;;5.00;1.90;;;;;;;18.16;64.47;99313.47;5040507;28;20452;-56
2022/06/06 12:35:52;;;;;;;5.43;2.28;;;;;;;18.09;64.74;99315.72;5064409;28;20039;-55
2022/06/06 12:38:54;;;;;;;5.78;2.30;;;;;;;18.09;65.40;99315.72;5047109;28;20052;-53
2022/06/06 12:42:17;;;;;;;4.07;1.95;;;;;;;18.29;65.06;99315.47;5058205;28;20059;-54
2022/06/06 12:44:57;;;;;;;4.07;2.00;;;;;;;18.46;64.91;99314.19;4986979;28;20030;-54